sensor_id;sensor_type;location;lat;lon;timestamp;P1;durP1;ratioP1;P2;durP2;ratioP2
29878;SDS011;16752;53.364;-1.488;2023-04-15T03:04:43;12.40;;;10.35;;
29878;SDS011;16752;53.364;-1.488;2023-04-15T03:19:30;15.27;;;11.73;;
29878;SDS011;16752;53.364;-1.488;2023-04-15T03:29:42;21.90;;;15.75;;
29878;SDS011;16752;53.364;-1.488;2023-04-15T03:33:09;19.13;;;14.77;;
29878;SDS011;16752;53.364;-1.488;2023-04-15T03:36:28;20.88;;;14.80;;
29878;SDS011;16752;53.364;-1.488;2023-04-15T03:42:43;20.15;;;15.32;;
29878;SDS011;16752;53.364;-1.488;2023-04-15T03:45:43;22.05;;;14.55;;
29878;SDS011;16752;53.364;-1.488;2023-04-15T03:51:37;22.63;;;16.15;;
29878;SDS011;16752;53.364;-1.488;2023-04-15T04:01:13;16.48;;;12.18;;
29878;SDS011;16752;53.364;-1.488;2023-04-15T04:04:13;18.77;;;13.18;;
29878;SDS011;16752;53.364;-1.488;2023-04-15T04:09:57;13.45;;;9.43;;
29878;SDS011;16752;53.364;-1.488;2023-04-15T04:12:49;11.50;;;9.18;;
29878;SDS011;16752;53.364;-1.488;2023-04-15T04:15:38;14.18;;;10.00;;
29878;SDS011;16752;53.364;-1.488;2023-04-15T04:18:22;15.18;;;10.23;;
29878;SDS011;16752;53.364;-1.488;2023-04-15T04:21:18;13.45;;;10.00;;
29878;SDS011;16752;53.364;-1.488;2023-04-15T04:24:15;14.32;;;10.10;;
29878;SDS011;16752;53.364;-1.488;2023-04-15T04:27:05;16.02;;;10.57;;
29878;SDS011;16752;53.364;-1.488;2023-04-15T04:29:59;13.43;;;9.50;;
29878;SDS011;16752;53.364;-1.488;2023-04-15T04:36:37;17.77;;;10.98;;
29878;SDS011;16752;53.364;-1.488;2023-04-15T04:39:56;15.13;;;10.43;;
29878;SDS011;16752;53.364;-1.488;2023-04-15T04:42:47;14.93;;;10.23;;
29878;SDS011;16752;53.364;-1.488;2023-04-15T04:45:57;13.00;;;9.15;;
29878;SDS011;16752;53.364;-1.488;2023-04-15T04:56:44;19.38;;;12.02;;
29878;SDS011;16752;53.364;-1.488;2023-04-15T08:12:48;17.05;;;10.55;;
29878;SDS011;16752;53.364;-1.488;2023-04-15T08:26:26;14.10;;;10.40;;
29878;SDS011;16752;53.364;-1.488;2023-04-15T09:04:11;11.77;;;9.05;;
29878;SDS011;16752;53.364;-1.488;2023-04-15T09:07:20;11.70;;;8.43;;
29878;SDS011;16752;53.364;-1.488;2023-04-15T09:10:06;13.48;;;9.13;;
29878;SDS011;16752;53.364;-1.488;2023-04-15T09:12:54;15.10;;;8.90;;
29878;SDS011;16752;53.364;-1.488;2023-04-15T09:15:40;15.13;;;9.77;;
29878;SDS011;16752;53.364;-1.488;2023-04-15T09:18:42;13.80;;;8.10;;
29878;SDS011;16752;53.364;-1.488;2023-04-15T09:21:26;11.68;;;8.85;;
29878;SDS011;16752;53.364;-1.488;2023-04-15T09:24:24;12.65;;;8.70;;
29878;SDS011;16752;53.364;-1.488;2023-04-15T09:27:37;15.48;;;8.20;;
29878;SDS011;16752;53.364;-1.488;2023-04-15T09:31:00;13.25;;;8.05;;
29878;SDS011;16752;53.364;-1.488;2023-04-15T09:33:54;17.60;;;9.30;;
29878;SDS011;16752;53.364;-1.488;2023-04-15T09:39:44;14.45;;;8.35;;
29878;SDS011;16752;53.364;-1.488;2023-04-15T09:42:35;10.15;;;7.30;;
29878;SDS011;16752;53.364;-1.488;2023-04-15T09:45:20;14.07;;;6.38;;
29878;SDS011;16752;53.364;-1.488;2023-04-15T09:48:15;15.40;;;7.05;;
29878;SDS011;16752;53.364;-1.488;2023-04-15T09:51:09;15.25;;;7.50;;
29878;SDS011;16752;53.364;-1.488;2023-04-15T09:53:53;7.32;;;5.95;;
29878;SDS011;16752;53.364;-1.488;2023-04-15T09:56:39;11.15;;;6.07;;
29878;SDS011;16752;53.364;-1.488;2023-04-15T09:59:26;12.35;;;6.68;;
29878;SDS011;16752;53.364;-1.488;2023-04-15T10:02:10;10.88;;;6.40;;
29878;SDS011;16752;53.364;-1.488;2023-04-15T10:04:56;8.27;;;6.55;;
29878;SDS011;16752;53.364;-1.488;2023-04-15T10:07:43;18.05;;;6.97;;
29878;SDS011;16752;53.364;-1.488;2023-04-15T10:10:31;13.32;;;6.80;;
29878;SDS011;16752;53.364;-1.488;2023-04-15T10:13:16;11.18;;;7.18;;
29878;SDS011;16752;53.364;-1.488;2023-04-15T10:16:06;11.57;;;7.13;;
29878;SDS011;16752;53.364;-1.488;2023-04-15T10:18:54;11.23;;;7.72;;
29878;SDS011;16752;53.364;-1.488;2023-04-15T10:21:47;12.05;;;5.97;;
29878;SDS011;16752;53.364;-1.488;2023-04-15T10:24:33;11.60;;;6.13;;
29878;SDS011;16752;53.364;-1.488;2023-04-15T10:27:17;13.30;;;7.07;;
29878;SDS011;16752;53.364;-1.488;2023-04-15T10:30:03;11.27;;;6.05;;
29878;SDS011;16752;53.364;-1.488;2023-04-15T10:32:48;8.73;;;4.90;;
29878;SDS011;16752;53.364;-1.488;2023-04-15T10:35:33;9.35;;;6.03;;
29878;SDS011;16752;53.364;-1.488;2023-04-15T10:41:30;10.23;;;5.70;;
29878;SDS011;16752;53.364;-1.488;2023-04-15T10:44:16;12.00;;;6.72;;
29878;SDS011;16752;53.364;-1.488;2023-04-15T10:47:00;8.93;;;5.78;;
29878;SDS011;16752;53.364;-1.488;2023-04-15T10:49:57;10.23;;;5.60;;
29878;SDS011;16752;53.364;-1.488;2023-04-15T10:52:42;10.50;;;6.03;;
29878;SDS011;16752;53.364;-1.488;2023-04-15T10:55:30;13.75;;;6.65;;
29878;SDS011;16752;53.364;-1.488;2023-04-15T10:58:15;12.25;;;6.85;;
29878;SDS011;16752;53.364;-1.488;2023-04-15T11:00:59;11.20;;;6.60;;
29878;SDS011;16752;53.364;-1.488;2023-04-15T11:03:45;13.80;;;7.63;;
29878;SDS011;16752;53.364;-1.488;2023-04-15T11:06:42;12.88;;;6.90;;
29878;SDS011;16752;53.364;-1.488;2023-04-15T11:09:31;8.38;;;5.53;;
29878;SDS011;16752;53.364;-1.488;2023-04-15T11:12:16;13.98;;;6.38;;
29878;SDS011;16752;53.364;-1.488;2023-04-15T11:18:11;14.25;;;8.15;;
29878;SDS011;16752;53.364;-1.488;2023-04-15T11:20:58;14.20;;;5.85;;
29878;SDS011;16752;53.364;-1.488;2023-04-15T11:23:46;9.40;;;5.45;;
29878;SDS011;16752;53.364;-1.488;2023-04-15T11:26:33;11.32;;;5.35;;
29878;SDS011;16752;53.364;-1.488;2023-04-15T11:32:27;12.10;;;5.85;;
29878;SDS011;16752;53.364;-1.488;2023-04-15T11:35:15;8.10;;;5.47;;
29878;SDS011;16752;53.364;-1.488;2023-04-15T11:38:03;28.20;;;17.98;;
29878;SDS011;16752;53.364;-1.488;2023-04-15T11:40:49;13.60;;;5.97;;
29878;SDS011;16752;53.364;-1.488;2023-04-15T11:43:36;7.43;;;5.23;;
29878;SDS011;16752;53.364;-1.488;2023-04-15T11:46:20;9.95;;;5.15;;
29878;SDS011;16752;53.364;-1.488;2023-04-15T11:49:24;6.53;;;4.35;;
29878;SDS011;16752;53.364;-1.488;2023-04-15T11:52:09;11.68;;;4.57;;
29878;SDS011;16752;53.364;-1.488;2023-04-15T11:55:00;8.85;;;4.95;;
29878;SDS011;16752;53.364;-1.488;2023-04-15T11:57:46;8.50;;;4.60;;
29878;SDS011;16752;53.364;-1.488;2023-04-15T12:00:30;8.15;;;5.05;;
29878;SDS011;16752;53.364;-1.488;2023-04-15T12:06:12;7.47;;;5.22;;
29878;SDS011;16752;53.364;-1.488;2023-04-15T12:14:39;8.15;;;4.03;;
29878;SDS011;16752;53.364;-1.488;2023-04-15T12:17:27;8.52;;;4.95;;
29878;SDS011;16752;53.364;-1.488;2023-04-15T12:20:11;10.73;;;4.20;;
29878;SDS011;16752;53.364;-1.488;2023-04-15T12:23:04;6.95;;;4.20;;
29878;SDS011;16752;53.364;-1.488;2023-04-15T12:25:51;10.38;;;5.00;;
29878;SDS011;16752;53.364;-1.488;2023-04-15T12:28:37;16.00;;;5.43;;
29878;SDS011;16752;53.364;-1.488;2023-04-15T12:31:24;7.68;;;4.95;;
29878;SDS011;16752;53.364;-1.488;2023-04-15T12:34:08;7.45;;;4.15;;
29878;SDS011;16752;53.364;-1.488;2023-04-15T12:36:53;10.40;;;4.40;;
29878;SDS011;16752;53.364;-1.488;2023-04-15T12:39:38;6.97;;;4.53;;
29878;SDS011;16752;53.364;-1.488;2023-04-15T12:42:24;5.05;;;3.75;;
29878;SDS011;16752;53.364;-1.488;2023-04-15T12:45:08;5.90;;;4.50;;
29878;SDS011;16752;53.364;-1.488;2023-04-15T12:47:52;9.88;;;4.35;;
29878;SDS011;16752;53.364;-1.488;2023-04-15T12:50:36;6.63;;;4.35;;
29878;SDS011;16752;53.364;-1.488;2023-04-15T12:53:21;11.52;;;5.28;;
29878;SDS011;16752;53.364;-1.488;2023-04-15T12:56:05;6.82;;;4.45;;
29878;SDS011;16752;53.364;-1.488;2023-04-15T12:58:50;6.43;;;4.43;;
29878;SDS011;16752;53.364;-1.488;2023-04-15T13:01:33;8.95;;;4.40;;
29878;SDS011;16752;53.364;-1.488;2023-04-15T13:04:18;7.18;;;5.45;;
29878;SDS011;16752;53.364;-1.488;2023-04-15T13:07:05;7.70;;;5.07;;
29878;SDS011;16752;53.364;-1.488;2023-04-15T13:09:49;5.78;;;3.83;;
29878;SDS011;16752;53.364;-1.488;2023-04-15T13:15:45;8.65;;;4.93;;
29878;SDS011;16752;53.364;-1.488;2023-04-15T13:18:30;7.35;;;3.80;;
29878;SDS011;16752;53.364;-1.488;2023-04-15T13:21:15;7.55;;;5.22;;
29878;SDS011;16752;53.364;-1.488;2023-04-15T13:28:16;7.25;;;4.63;;
29878;SDS011;16752;53.364;-1.488;2023-04-15T13:31:01;10.07;;;5.05;;
29878;SDS011;16752;53.364;-1.488;2023-04-15T13:34:06;8.00;;;4.97;;
29878;SDS011;16752;53.364;-1.488;2023-04-15T13:37:07;7.30;;;5.43;;
29878;SDS011;16752;53.364;-1.488;2023-04-15T13:39:52;7.78;;;4.40;;
29878;SDS011;16752;53.364;-1.488;2023-04-15T13:42:41;5.57;;;4.60;;
29878;SDS011;16752;53.364;-1.488;2023-04-15T13:45:25;9.32;;;4.05;;
29878;SDS011;16752;53.364;-1.488;2023-04-15T13:48:09;9.82;;;4.88;;
29878;SDS011;16752;53.364;-1.488;2023-04-15T13:50:54;5.43;;;3.97;;
29878;SDS011;16752;53.364;-1.488;2023-04-15T13:53:38;9.35;;;4.85;;
29878;SDS011;16752;53.364;-1.488;2023-04-15T13:56:25;5.72;;;3.55;;
29878;SDS011;16752;53.364;-1.488;2023-04-15T13:59:18;6.60;;;4.80;;
29878;SDS011;16752;53.364;-1.488;2023-04-15T14:04:58;8.23;;;4.65;;
29878;SDS011;16752;53.364;-1.488;2023-04-15T14:07:42;7.55;;;4.22;;
29878;SDS011;16752;53.364;-1.488;2023-04-15T14:10:26;7.43;;;4.80;;
29878;SDS011;16752;53.364;-1.488;2023-04-15T14:13:10;6.55;;;4.35;;
29878;SDS011;16752;53.364;-1.488;2023-04-15T14:15:55;5.95;;;4.07;;
29878;SDS011;16752;53.364;-1.488;2023-04-15T14:18:40;7.60;;;4.68;;
29878;SDS011;16752;53.364;-1.488;2023-04-15T14:21:24;9.95;;;5.85;;
29878;SDS011;16752;53.364;-1.488;2023-04-15T14:24:10;7.75;;;4.70;;
29878;SDS011;16752;53.364;-1.488;2023-04-15T14:26:54;9.60;;;4.88;;
29878;SDS011;16752;53.364;-1.488;2023-04-15T14:29:40;8.15;;;4.70;;
29878;SDS011;16752;53.364;-1.488;2023-04-15T14:32:24;6.18;;;4.25;;
29878;SDS011;16752;53.364;-1.488;2023-04-15T14:35:09;6.63;;;4.80;;
29878;SDS011;16752;53.364;-1.488;2023-04-15T14:37:53;10.52;;;5.13;;
29878;SDS011;16752;53.364;-1.488;2023-04-15T14:40:39;10.07;;;4.95;;
29878;SDS011;16752;53.364;-1.488;2023-04-15T14:43:24;6.32;;;4.10;;
29878;SDS011;16752;53.364;-1.488;2023-04-15T14:46:09;9.93;;;3.92;;
29878;SDS011;16752;53.364;-1.488;2023-04-15T14:48:53;6.20;;;3.70;;
29878;SDS011;16752;53.364;-1.488;2023-04-15T14:51:37;7.18;;;4.25;;
29878;SDS011;16752;53.364;-1.488;2023-04-15T14:54:21;5.47;;;4.40;;
29878;SDS011;16752;53.364;-1.488;2023-04-15T14:57:05;5.80;;;3.83;;
29878;SDS011;16752;53.364;-1.488;2023-04-15T14:59:50;6.05;;;3.90;;
29878;SDS011;16752;53.364;-1.488;2023-04-15T15:02:39;5.80;;;3.67;;
29878;SDS011;16752;53.364;-1.488;2023-04-15T15:05:24;8.82;;;4.40;;
29878;SDS011;16752;53.364;-1.488;2023-04-15T15:08:08;4.45;;;4.05;;
29878;SDS011;16752;53.364;-1.488;2023-04-15T15:10:58;6.93;;;3.80;;
29878;SDS011;16752;53.364;-1.488;2023-04-15T15:13:56;9.35;;;4.72;;
29878;SDS011;16752;53.364;-1.488;2023-04-15T15:16:43;6.07;;;3.97;;
29878;SDS011;16752;53.364;-1.488;2023-04-15T15:19:29;8.85;;;4.38;;
29878;SDS011;16752;53.364;-1.488;2023-04-15T15:22:28;7.43;;;4.45;;
29878;SDS011;16752;53.364;-1.488;2023-04-15T15:25:18;5.18;;;3.50;;
29878;SDS011;16752;53.364;-1.488;2023-04-15T15:28:02;8.90;;;4.88;;
29878;SDS011;16752;53.364;-1.488;2023-04-15T15:30:47;4.68;;;3.85;;
29878;SDS011;16752;53.364;-1.488;2023-04-15T15:33:36;6.20;;;4.18;;
29878;SDS011;16752;53.364;-1.488;2023-04-15T15:36:22;4.88;;;3.55;;
29878;SDS011;16752;53.364;-1.488;2023-04-15T15:39:06;6.15;;;2.75;;
29878;SDS011;16752;53.364;-1.488;2023-04-15T15:41:51;6.13;;;3.35;;
29878;SDS011;16752;53.364;-1.488;2023-04-15T15:44:35;11.57;;;4.53;;
29878;SDS011;16752;53.364;-1.488;2023-04-15T15:47:21;8.25;;;3.42;;
29878;SDS011;16752;53.364;-1.488;2023-04-15T15:50:05;4.35;;;3.50;;
29878;SDS011;16752;53.364;-1.488;2023-04-15T15:52:50;4.47;;;3.13;;
29878;SDS011;16752;53.364;-1.488;2023-04-15T15:55:52;5.15;;;3.08;;
29878;SDS011;16752;53.364;-1.488;2023-04-15T15:58:36;5.00;;;3.10;;
29878;SDS011;16752;53.364;-1.488;2023-04-15T16:01:20;4.78;;;3.25;;
29878;SDS011;16752;53.364;-1.488;2023-04-15T16:04:09;5.47;;;2.83;;
29878;SDS011;16752;53.364;-1.488;2023-04-15T16:06:56;3.38;;;3.08;;
29878;SDS011;16752;53.364;-1.488;2023-04-15T16:09:44;4.28;;;3.25;;
29878;SDS011;16752;53.364;-1.488;2023-04-15T16:12:31;6.53;;;2.90;;
29878;SDS011;16752;53.364;-1.488;2023-04-15T16:15:15;2.80;;;2.60;;
29878;SDS011;16752;53.364;-1.488;2023-04-15T16:17:59;4.57;;;2.40;;
29878;SDS011;16752;53.364;-1.488;2023-04-15T16:20:43;4.85;;;2.90;;
29878;SDS011;16752;53.364;-1.488;2023-04-15T16:23:41;5.28;;;3.33;;
29878;SDS011;16752;53.364;-1.488;2023-04-15T16:27:01;3.83;;;3.15;;
29878;SDS011;16752;53.364;-1.488;2023-04-15T16:29:46;6.18;;;4.35;;
29878;SDS011;16752;53.364;-1.488;2023-04-15T16:32:37;6.55;;;4.13;;
29878;SDS011;16752;53.364;-1.488;2023-04-15T16:35:24;13.55;;;6.55;;
29878;SDS011;16752;53.364;-1.488;2023-04-15T16:38:08;5.53;;;5.00;;
29878;SDS011;16752;53.364;-1.488;2023-04-15T16:40:53;7.20;;;4.55;;
29878;SDS011;16752;53.364;-1.488;2023-04-15T16:43:41;7.17;;;3.83;;
29878;SDS011;16752;53.364;-1.488;2023-04-15T16:46:25;8.73;;;4.82;;
29878;SDS011;16752;53.364;-1.488;2023-04-15T16:49:09;7.05;;;5.10;;
29878;SDS011;16752;53.364;-1.488;2023-04-15T16:51:54;6.95;;;5.18;;
29878;SDS011;16752;53.364;-1.488;2023-04-15T16:54:38;7.88;;;3.95;;
29878;SDS011;16752;53.364;-1.488;2023-04-15T16:57:24;8.23;;;3.33;;
29878;SDS011;16752;53.364;-1.488;2023-04-15T17:00:08;4.35;;;3.92;;
29878;SDS011;16752;53.364;-1.488;2023-04-15T17:02:56;6.88;;;4.10;;
29878;SDS011;16752;53.364;-1.488;2023-04-15T17:05:41;8.50;;;4.13;;
29878;SDS011;16752;53.364;-1.488;2023-04-15T17:08:25;5.50;;;3.38;;
29878;SDS011;16752;53.364;-1.488;2023-04-15T17:11:09;14.45;;;10.57;;
29878;SDS011;16752;53.364;-1.488;2023-04-15T17:13:54;11.88;;;6.63;;
29878;SDS011;16752;53.364;-1.488;2023-04-15T17:16:38;4.80;;;3.58;;
29878;SDS011;16752;53.364;-1.488;2023-04-15T17:19:23;4.40;;;3.15;;
29878;SDS011;16752;53.364;-1.488;2023-04-15T17:22:06;6.22;;;4.07;;
29878;SDS011;16752;53.364;-1.488;2023-04-15T17:24:50;4.03;;;3.00;;
29878;SDS011;16752;53.364;-1.488;2023-04-15T17:27:34;6.65;;;4.10;;
29878;SDS011;16752;53.364;-1.488;2023-04-15T17:30:19;6.53;;;3.50;;
29878;SDS011;16752;53.364;-1.488;2023-04-15T17:33:04;5.75;;;3.35;;
29878;SDS011;16752;53.364;-1.488;2023-04-15T17:35:48;5.47;;;3.35;;
29878;SDS011;16752;53.364;-1.488;2023-04-15T17:38:33;3.00;;;2.70;;
29878;SDS011;16752;53.364;-1.488;2023-04-15T17:41:17;5.47;;;2.88;;
29878;SDS011;16752;53.364;-1.488;2023-04-15T17:44:01;8.02;;;4.18;;
29878;SDS011;16752;53.364;-1.488;2023-04-15T17:46:45;8.38;;;3.78;;
29878;SDS011;16752;53.364;-1.488;2023-04-15T17:49:29;9.52;;;4.07;;
29878;SDS011;16752;53.364;-1.488;2023-04-15T17:52:15;5.07;;;2.72;;
29878;SDS011;16752;53.364;-1.488;2023-04-15T17:54:59;4.25;;;3.60;;
29878;SDS011;16752;53.364;-1.488;2023-04-15T17:57:43;6.95;;;3.38;;
29878;SDS011;16752;53.364;-1.488;2023-04-15T18:00:29;5.05;;;2.95;;
29878;SDS011;16752;53.364;-1.488;2023-04-15T18:03:12;4.05;;;3.13;;
29878;SDS011;16752;53.364;-1.488;2023-04-15T18:05:56;5.03;;;3.55;;
29878;SDS011;16752;53.364;-1.488;2023-04-15T18:08:41;5.95;;;3.25;;
29878;SDS011;16752;53.364;-1.488;2023-04-15T18:11:25;7.43;;;4.35;;
29878;SDS011;16752;53.364;-1.488;2023-04-15T18:14:09;6.47;;;3.92;;
29878;SDS011;16752;53.364;-1.488;2023-04-15T18:16:53;5.60;;;3.97;;
29878;SDS011;16752;53.364;-1.488;2023-04-15T18:19:37;6.00;;;4.07;;
29878;SDS011;16752;53.364;-1.488;2023-04-15T18:22:23;5.53;;;4.10;;
29878;SDS011;16752;53.364;-1.488;2023-04-15T18:25:08;8.65;;;4.45;;
29878;SDS011;16752;53.364;-1.488;2023-04-15T18:27:55;8.38;;;4.20;;
29878;SDS011;16752;53.364;-1.488;2023-04-15T18:30:40;8.63;;;4.03;;
29878;SDS011;16752;53.364;-1.488;2023-04-15T18:33:24;7.03;;;4.53;;
29878;SDS011;16752;53.364;-1.488;2023-04-15T18:36:08;9.23;;;4.78;;
29878;SDS011;16752;53.364;-1.488;2023-04-15T18:38:53;11.88;;;5.32;;
29878;SDS011;16752;53.364;-1.488;2023-04-15T18:41:37;10.35;;;4.63;;
29878;SDS011;16752;53.364;-1.488;2023-04-15T18:44:21;8.70;;;5.03;;
29878;SDS011;16752;53.364;-1.488;2023-04-15T18:47:06;7.50;;;4.50;;
29878;SDS011;16752;53.364;-1.488;2023-04-15T18:49:50;7.78;;;5.45;;
29878;SDS011;16752;53.364;-1.488;2023-04-15T18:52:34;8.68;;;5.15;;
29878;SDS011;16752;53.364;-1.488;2023-04-15T18:55:18;13.68;;;5.85;;
29878;SDS011;16752;53.364;-1.488;2023-04-15T18:58:03;7.43;;;5.45;;
29878;SDS011;16752;53.364;-1.488;2023-04-15T19:00:47;8.27;;;5.63;;
29878;SDS011;16752;53.364;-1.488;2023-04-15T19:03:30;7.32;;;5.60;;
29878;SDS011;16752;53.364;-1.488;2023-04-15T19:06:19;7.28;;;5.20;;
29878;SDS011;16752;53.364;-1.488;2023-04-15T19:22:42;9.80;;;6.60;;
29878;SDS011;16752;53.364;-1.488;2023-04-15T19:25:25;8.35;;;5.05;;
29878;SDS011;16752;53.364;-1.488;2023-04-15T19:28:09;12.10;;;5.75;;
29878;SDS011;16752;53.364;-1.488;2023-04-15T19:30:54;9.40;;;5.35;;
29878;SDS011;16752;53.364;-1.488;2023-04-15T19:33:40;6.82;;;5.82;;
29878;SDS011;16752;53.364;-1.488;2023-04-15T19:36:25;10.88;;;5.75;;
29878;SDS011;16752;53.364;-1.488;2023-04-15T19:39:12;9.70;;;5.57;;
29878;SDS011;16752;53.364;-1.488;2023-04-15T19:41:59;8.57;;;6.68;;
29878;SDS011;16752;53.364;-1.488;2023-04-15T19:44:45;11.13;;;6.15;;
29878;SDS011;16752;53.364;-1.488;2023-04-15T19:47:29;11.88;;;7.72;;
29878;SDS011;16752;53.364;-1.488;2023-04-15T19:50:13;10.07;;;7.47;;
29878;SDS011;16752;53.364;-1.488;2023-04-15T19:52:59;12.73;;;7.53;;
29878;SDS011;16752;53.364;-1.488;2023-04-15T19:55:43;11.77;;;8.05;;
29878;SDS011;16752;53.364;-1.488;2023-04-15T19:58:27;18.92;;;8.85;;
29878;SDS011;16752;53.364;-1.488;2023-04-15T20:01:13;11.07;;;9.07;;
29878;SDS011;16752;53.364;-1.488;2023-04-15T20:03:57;15.75;;;10.77;;
29878;SDS011;16752;53.364;-1.488;2023-04-15T20:06:42;22.30;;;12.80;;
29878;SDS011;16752;53.364;-1.488;2023-04-15T20:09:26;21.92;;;13.82;;
29878;SDS011;16752;53.364;-1.488;2023-04-15T20:12:10;22.00;;;16.17;;
29878;SDS011;16752;53.364;-1.488;2023-04-15T20:14:53;22.35;;;15.75;;
29878;SDS011;16752;53.364;-1.488;2023-04-15T20:17:37;22.30;;;15.82;;
29878;SDS011;16752;53.364;-1.488;2023-04-15T20:20:21;23.17;;;15.65;;
29878;SDS011;16752;53.364;-1.488;2023-04-15T20:23:09;28.80;;;15.43;;
29878;SDS011;16752;53.364;-1.488;2023-04-15T20:25:53;26.23;;;15.50;;
29878;SDS011;16752;53.364;-1.488;2023-04-15T20:28:38;22.23;;;15.60;;
29878;SDS011;16752;53.364;-1.488;2023-04-15T20:31:22;20.45;;;15.93;;
29878;SDS011;16752;53.364;-1.488;2023-04-15T20:34:06;18.13;;;14.15;;
29878;SDS011;16752;53.364;-1.488;2023-04-15T20:36:50;23.25;;;14.80;;
29878;SDS011;16752;53.364;-1.488;2023-04-15T20:39:34;23.02;;;15.05;;
29878;SDS011;16752;53.364;-1.488;2023-04-15T20:42:18;20.00;;;13.82;;
29878;SDS011;16752;53.364;-1.488;2023-04-15T20:45:02;25.70;;;16.75;;
29878;SDS011;16752;53.364;-1.488;2023-04-15T20:47:47;29.08;;;16.63;;
29878;SDS011;16752;53.364;-1.488;2023-04-15T20:50:31;23.75;;;16.42;;
29878;SDS011;16752;53.364;-1.488;2023-04-15T20:53:16;23.67;;;15.68;;
29878;SDS011;16752;53.364;-1.488;2023-04-15T20:56:00;24.17;;;16.58;;
29878;SDS011;16752;53.364;-1.488;2023-04-15T20:58:44;20.02;;;15.18;;
29878;SDS011;16752;53.364;-1.488;2023-04-15T21:01:28;26.65;;;16.58;;
29878;SDS011;16752;53.364;-1.488;2023-04-15T21:04:12;21.10;;;14.70;;
29878;SDS011;16752;53.364;-1.488;2023-04-15T21:06:56;23.25;;;14.27;;
29878;SDS011;16752;53.364;-1.488;2023-04-15T21:09:40;24.75;;;14.90;;
29878;SDS011;16752;53.364;-1.488;2023-04-15T21:12:26;21.60;;;14.35;;
29878;SDS011;16752;53.364;-1.488;2023-04-15T21:15:10;22.83;;;15.23;;
29878;SDS011;16752;53.364;-1.488;2023-04-15T21:17:54;17.95;;;14.80;;
29878;SDS011;16752;53.364;-1.488;2023-04-15T21:20:38;22.35;;;15.45;;
29878;SDS011;16752;53.364;-1.488;2023-04-15T21:23:23;20.63;;;13.90;;
29878;SDS011;16752;53.364;-1.488;2023-04-15T21:26:07;19.55;;;15.05;;
29878;SDS011;16752;53.364;-1.488;2023-04-15T21:28:50;17.92;;;12.68;;
29878;SDS011;16752;53.364;-1.488;2023-04-15T21:31:34;21.30;;;14.07;;
29878;SDS011;16752;53.364;-1.488;2023-04-15T21:34:18;18.77;;;13.68;;
29878;SDS011;16752;53.364;-1.488;2023-04-15T21:37:02;18.05;;;13.18;;
29878;SDS011;16752;53.364;-1.488;2023-04-15T21:39:46;17.38;;;12.85;;
29878;SDS011;16752;53.364;-1.488;2023-04-15T21:42:30;20.85;;;13.90;;
29878;SDS011;16752;53.364;-1.488;2023-04-15T21:45:14;26.63;;;16.60;;
29878;SDS011;16752;53.364;-1.488;2023-04-15T21:47:59;20.65;;;14.00;;
29878;SDS011;16752;53.364;-1.488;2023-04-15T21:50:43;26.83;;;16.08;;
29878;SDS011;16752;53.364;-1.488;2023-04-15T21:53:27;23.50;;;15.00;;
29878;SDS011;16752;53.364;-1.488;2023-04-15T21:56:11;22.38;;;15.70;;
29878;SDS011;16752;53.364;-1.488;2023-04-15T21:58:56;27.52;;;17.92;;
29878;SDS011;16752;53.364;-1.488;2023-04-15T22:01:40;26.88;;;17.52;;
29878;SDS011;16752;53.364;-1.488;2023-04-15T22:04:24;22.23;;;16.60;;
29878;SDS011;16752;53.364;-1.488;2023-04-15T22:07:10;21.05;;;15.02;;
29878;SDS011;16752;53.364;-1.488;2023-04-15T22:09:54;21.40;;;15.45;;
29878;SDS011;16752;53.364;-1.488;2023-04-15T22:12:39;20.30;;;14.73;;
29878;SDS011;16752;53.364;-1.488;2023-04-15T22:15:24;20.23;;;14.10;;
29878;SDS011;16752;53.364;-1.488;2023-04-15T22:18:10;20.98;;;13.52;;
29878;SDS011;16752;53.364;-1.488;2023-04-15T22:20:55;20.90;;;14.93;;
29878;SDS011;16752;53.364;-1.488;2023-04-15T22:23:46;22.67;;;16.05;;
29878;SDS011;16752;53.364;-1.488;2023-04-15T22:26:31;20.23;;;13.73;;
29878;SDS011;16752;53.364;-1.488;2023-04-15T22:29:14;21.83;;;14.32;;
29878;SDS011;16752;53.364;-1.488;2023-04-15T22:31:58;19.98;;;14.00;;
29878;SDS011;16752;53.364;-1.488;2023-04-15T22:34:42;16.67;;;14.52;;
29878;SDS011;16752;53.364;-1.488;2023-04-15T22:37:27;18.35;;;13.82;;
29878;SDS011;16752;53.364;-1.488;2023-04-15T22:40:14;19.27;;;13.13;;
29878;SDS011;16752;53.364;-1.488;2023-04-15T22:42:58;17.50;;;12.80;;
29878;SDS011;16752;53.364;-1.488;2023-04-15T22:45:46;22.13;;;14.70;;
29878;SDS011;16752;53.364;-1.488;2023-04-15T22:48:31;17.40;;;13.52;;
29878;SDS011;16752;53.364;-1.488;2023-04-15T22:51:20;17.95;;;13.63;;
29878;SDS011;16752;53.364;-1.488;2023-04-15T22:54:06;16.75;;;14.00;;
29878;SDS011;16752;53.364;-1.488;2023-04-15T22:56:49;18.20;;;13.95;;
29878;SDS011;16752;53.364;-1.488;2023-04-15T22:59:34;18.73;;;12.75;;
29878;SDS011;16752;53.364;-1.488;2023-04-15T23:02:18;21.42;;;14.38;;
29878;SDS011;16752;53.364;-1.488;2023-04-15T23:05:02;16.00;;;12.90;;
29878;SDS011;16752;53.364;-1.488;2023-04-15T23:07:46;17.35;;;12.80;;
29878;SDS011;16752;53.364;-1.488;2023-04-15T23:10:30;20.80;;;13.10;;
29878;SDS011;16752;53.364;-1.488;2023-04-15T23:13:15;18.05;;;14.32;;
29878;SDS011;16752;53.364;-1.488;2023-04-15T23:15:59;19.75;;;13.98;;
29878;SDS011;16752;53.364;-1.488;2023-04-15T23:18:44;16.85;;;12.18;;
29878;SDS011;16752;53.364;-1.488;2023-04-15T23:21:28;16.73;;;13.65;;
29878;SDS011;16752;53.364;-1.488;2023-04-15T23:24:13;18.45;;;12.95;;
29878;SDS011;16752;53.364;-1.488;2023-04-15T23:26:58;21.00;;;14.05;;
29878;SDS011;16752;53.364;-1.488;2023-04-15T23:29:42;17.08;;;13.27;;
29878;SDS011;16752;53.364;-1.488;2023-04-15T23:32:26;21.30;;;12.77;;
29878;SDS011;16752;53.364;-1.488;2023-04-15T23:35:10;16.08;;;12.98;;
29878;SDS011;16752;53.364;-1.488;2023-04-15T23:37:54;15.90;;;12.85;;
29878;SDS011;16752;53.364;-1.488;2023-04-15T23:40:38;17.55;;;12.57;;
29878;SDS011;16752;53.364;-1.488;2023-04-15T23:43:21;21.17;;;13.27;;
29878;SDS011;16752;53.364;-1.488;2023-04-15T23:46:05;23.63;;;14.15;;
29878;SDS011;16752;53.364;-1.488;2023-04-15T23:48:51;18.20;;;13.07;;
29878;SDS011;16752;53.364;-1.488;2023-04-15T23:51:35;20.00;;;13.25;;
29878;SDS011;16752;53.364;-1.488;2023-04-15T23:54:19;16.38;;;13.65;;
29878;SDS011;16752;53.364;-1.488;2023-04-15T23:57:03;16.10;;;13.65;;
29878;SDS011;16752;53.364;-1.488;2023-04-15T23:59:47;18.30;;;13.70;;
